Time;durP1;ratioP1;P1;durP2;ratioP2;P2;SDS_P1;SDS_P2;PMS_P1;PMS_P2;Temp;Humidity;BMP_temperature;BMP_pressure;BME280_temperature;BME280_humidity;BME280_pressure;Samples;Min_cycle;Max_cycle;Signal;HPM_P1;HPM_P2
2021/07/14 00:02:05;;;;;;;41.40;37.07;;;;;;;;;;5073441;28;20449;-74
2021/07/14 00:04:32;;;;;;;41.57;37.17;;;;;;;;;;5086739;28;20995;-74
2021/07/14 00:07:00;;;;;;;39.30;35.20;;;;;;;;;;5083594;28;20496;-74
2021/07/14 00:09:27;;;;;;;41.77;36.13;;;;;;;;;;5073332;28;20473;-74
2021/07/14 00:11:57;;;;;;;39.80;35.53;;;;;;;;;;5072770;28;20580;-74
2021/07/14 00:14:58;;;;;;;38.73;34.83;;;;;;;;;;5072642;28;20425;-74
2021/07/14 00:17:42;;;;;;;39.40;34.07;;;;;;;;;;5073247;28;20449;-76
2021/07/14 00:22:55;;;;;;;40.30;33.47;;;;;;;;;;5073075;28;20428;-75
2021/07/14 00:25:22;;;;;;;41.20;36.77;;;;;;;;;;5073038;28;20817;-75
2021/07/14 00:27:52;;;;;;;45.40;37.67;;;;;;;;;;5073194;28;20458;-75
2021/07/14 00:30:25;;;;;;;42.63;36.90;;;;;;;;;;5073150;28;20445;-75
2021/07/14 00:32:52;;;;;;;41.50;36.70;;;;;;;;;;5072870;28;20567;-75
2021/07/14 00:35:20;;;;;;;46.23;37.27;;;;;;;;;;5073563;28;20458;-76
2021/07/14 00:37:47;;;;;;;47.20;39.87;;;;;;;;;;5073696;28;20526;-75
2021/07/14 00:40:14;;;;;;;47.73;39.37;;;;;;;;;;5072786;28;20802;-76
2021/07/14 00:42:42;;;;;;;45.20;39.57;;;;;;;;;;5072675;28;20445;-75
2021/07/14 00:45:12;;;;;;;44.37;39.53;;;;;;;;;;5073010;28;20437;-76
2021/07/14 00:47:44;;;;;;;43.90;39.07;;;;;;;;;;5073501;28;20445;-74
2021/07/14 00:50:11;;;;;;;44.90;39.67;;;;;;;;;;5073645;28;20849;-76
2021/07/14 00:52:39;;;;;;;47.23;40.30;;;;;;;;;;5073182;28;20484;-76
2021/07/14 00:55:06;;;;;;;53.87;42.77;;;;;;;;;;5073089;28;20980;-76
2021/07/14 00:57:33;;;;;;;50.20;38.10;;;;;;;;;;5072915;28;20449;-76
2021/07/14 01:00:01;;;;;;;53.43;41.60;;;;;;;;;;5073168;28;20473;-77
2021/07/14 01:02:29;;;;;;;50.07;43.50;;;;;;;;;;5072858;28;20878;-76
2021/07/14 01:04:58;;;;;;;53.20;42.37;;;;;;;;;;5073381;28;20633;-76
2021/07/14 01:07:26;;;;;;;52.50;44.13;;;;;;;;;;5072635;28;20929;-76
2021/07/14 01:09:55;;;;;;;50.30;41.30;;;;;;;;;;5072795;28;20483;-76
2021/07/14 01:12:26;;;;;;;51.83;42.77;;;;;;;;;;5072722;28;20561;-77
2021/07/14 01:14:58;;;;;;;51.30;42.57;;;;;;;;;;5073054;28;20445;-77
2021/07/14 01:17:26;;;;;;;52.00;43.57;;;;;;;;;;5072452;28;20521;-77
2021/07/14 01:20:06;;;;;;;55.57;44.17;;;;;;;;;;5073289;28;20450;-76
2021/07/14 01:22:38;;;;;;;54.20;43.47;;;;;;;;;;5081247;28;20444;-76
2021/07/14 01:25:06;;;;;;;59.50;46.70;;;;;;;;;;5092654;28;20429;-76
2021/07/14 01:27:36;;;;;;;59.40;46.80;;;;;;;;;;5095274;28;20536;-74
2021/07/14 01:30:08;;;;;;;61.60;45.10;;;;;;;;;;5096312;28;20453;-74
2021/07/14 01:32:37;;;;;;;60.87;45.10;;;;;;;;;;5096361;28;20504;-74
2021/07/14 01:35:06;;;;;;;54.30;46.50;;;;;;;;;;5096310;28;20486;-76
2021/07/14 01:37:35;;;;;;;61.37;44.07;;;;;;;;;;5096227;28;20495;-74
2021/07/14 01:40:03;;;;;;;58.97;44.40;;;;;;;;;;5096235;28;20528;-74
2021/07/14 01:42:31;;;;;;;53.40;42.87;;;;;;;;;;5096119;28;20446;-74
2021/07/14 01:45:00;;;;;;;53.90;44.80;;;;;;;;;;5096419;28;20807;-74
2021/07/14 01:47:27;;;;;;;58.87;47.00;;;;;;;;;;5096102;28;20459;-74
2021/07/14 01:49:57;;;;;;;64.63;49.73;;;;;;;;;;5096850;28;20779;-75
2021/07/14 01:52:26;;;;;;;65.60;49.27;;;;;;;;;;5096179;28;20479;-75
2021/07/14 01:54:54;;;;;;;60.83;48.77;;;;;;;;;;5095923;28;20465;-74
2021/07/14 01:57:23;;;;;;;69.43;52.67;;;;;;;;;;5095588;28;20535;-74
2021/07/14 01:59:50;;;;;;;81.90;60.47;;;;;;;;;;5095642;28;20477;-74
2021/07/14 02:02:22;;;;;;;76.03;53.97;;;;;;;;;;5095805;28;20445;-73
2021/07/14 02:04:49;;;;;;;69.47;47.83;;;;;;;;;;5095880;28;20437;-73
2021/07/14 02:07:18;;;;;;;65.77;47.50;;;;;;;;;;5096570;28;20529;-74
2021/07/14 02:09:46;;;;;;;66.47;46.90;;;;;;;;;;5096621;28;20453;-73
2021/07/14 02:12:15;;;;;;;65.87;48.70;;;;;;;;;;5095275;28;20471;-73
2021/07/14 02:14:45;;;;;;;67.33;48.60;;;;;;;;;;5095491;28;20528;-75
2021/07/14 02:17:15;;;;;;;72.70;48.57;;;;;;;;;;5096051;28;20432;-75
2021/07/14 02:19:46;;;;;;;72.33;49.00;;;;;;;;;;5096125;28;20436;-74
2021/07/14 02:22:13;;;;;;;67.43;44.70;;;;;;;;;;5095707;28;20431;-75
2021/07/14 02:24:40;;;;;;;70.90;49.43;;;;;;;;;;5095906;28;20811;-75
2021/07/14 02:27:10;;;;;;;60.27;45.73;;;;;;;;;;5095532;28;20796;-75
2021/07/14 02:29:37;;;;;;;66.83;48.63;;;;;;;;;;5095227;28;20441;-75
2021/07/14 02:32:05;;;;;;;62.67;46.17;;;;;;;;;;5095203;28;20540;-74
2021/07/14 02:34:33;;;;;;;60.93;44.30;;;;;;;;;;5095225;28;20507;-75
2021/07/14 02:37:04;;;;;;;66.90;48.57;;;;;;;;;;5094870;28;20933;-75
2021/07/14 02:39:31;;;;;;;64.63;46.10;;;;;;;;;;5095444;28;20426;-75
2021/07/14 02:42:06;;;;;;;62.20;46.83;;;;;;;;;;5095125;28;20797;-75
2021/07/14 02:44:39;;;;;;;61.73;45.23;;;;;;;;;;5095426;28;20845;-75
2021/07/14 02:47:07;;;;;;;69.00;47.50;;;;;;;;;;5095090;28;20842;-75
2021/07/14 02:49:38;;;;;;;74.80;46.93;;;;;;;;;;5094900;28;20512;-75
2021/07/14 02:52:07;;;;;;;60.93;45.47;;;;;;;;;;5095024;28;20441;-75
2021/07/14 02:54:35;;;;;;;59.30;44.30;;;;;;;;;;5094656;28;20496;-75
2021/07/14 02:57:03;;;;;;;70.83;47.03;;;;;;;;;;5094735;28;20433;-75
2021/07/14 02:59:32;;;;;;;65.57;45.10;;;;;;;;;;5094867;28;20445;-74
2021/07/14 03:02:00;;;;;;;61.53;44.27;;;;;;;;;;5094630;28;20439;-75
2021/07/14 03:04:29;;;;;;;56.70;43.40;;;;;;;;;;5094600;28;20536;-73
2021/07/14 03:07:00;;;;;;;66.77;48.00;;;;;;;;;;5094239;28;20441;-76
2021/07/14 03:09:37;;;;;;;66.00;42.93;;;;;;;;;;5094714;28;20783;-74
2021/07/14 03:12:05;;;;;;;72.83;46.83;;;;;;;;;;5094236;28;20432;-74
2021/07/14 03:14:32;;;;;;;61.20;44.03;;;;;;;;;;5094354;28;21011;-74
2021/07/14 03:16:59;;;;;;;59.60;44.10;;;;;;;;;;5094371;28;20437;-74
2021/07/14 03:19:27;;;;;;;67.90;46.07;;;;;;;;;;5094377;28;20437;-72
2021/07/14 03:21:55;;;;;;;56.63;43.07;;;;;;;;;;5094264;28;20515;-72
2021/07/14 03:24:23;;;;;;;61.50;45.23;;;;;;;;;;5093974;28;21032;-72
2021/07/14 03:26:52;;;;;;;63.23;42.70;;;;;;;;;;5093841;28;20445;-74
2021/07/14 03:29:19;;;;;;;61.43;46.17;;;;;;;;;;5094132;28;20801;-74
2021/07/14 03:31:47;;;;;;;65.67;43.27;;;;;;;;;;5094115;28;20437;-74
2021/07/14 03:34:14;;;;;;;68.03;45.37;;;;;;;;;;5094343;28;20485;-75
2021/07/14 03:36:43;;;;;;;55.47;41.33;;;;;;;;;;5094588;28;20465;-73
2021/07/14 03:39:10;;;;;;;71.27;46.00;;;;;;;;;;5094040;28;20554;-73
2021/07/14 03:41:39;;;;;;;69.10;44.97;;;;;;;;;;5094042;28;20463;-74
2021/07/14 03:44:08;;;;;;;65.13;44.40;;;;;;;;;;5093623;28;20449;-74
2021/07/14 03:46:36;;;;;;;61.17;42.20;;;;;;;;;;5094081;28;20446;-74
2021/07/14 03:49:03;;;;;;;63.63;43.87;;;;;;;;;;5093422;28;20488;-74
2021/07/14 03:51:31;;;;;;;58.47;42.50;;;;;;;;;;5093898;28;20443;-75
2021/07/14 03:53:59;;;;;;;59.57;40.63;;;;;;;;;;5093858;28;20489;-74
2021/07/14 03:56:26;;;;;;;64.10;44.10;;;;;;;;;;5094276;28;20544;-74
2021/07/14 03:58:55;;;;;;;62.30;42.87;;;;;;;;;;5093409;28;20453;-74
2021/07/14 04:01:24;;;;;;;66.63;43.60;;;;;;;;;;5093146;28;20434;-75
2021/07/14 04:03:53;;;;;;;64.43;43.30;;;;;;;;;;5093855;28;20528;-74
2021/07/14 04:06:22;;;;;;;68.60;45.40;;;;;;;;;;5093660;28;20442;-75
2021/07/14 04:08:50;;;;;;;65.03;43.80;;;;;;;;;;5093560;28;20437;-74
2021/07/14 04:11:17;;;;;;;69.90;44.70;;;;;;;;;;5093501;28;20437;-74
2021/07/14 04:13:45;;;;;;;62.63;45.33;;;;;;;;;;5093433;28;20483;-73
2021/07/14 04:16:12;;;;;;;71.77;48.10;;;;;;;;;;5093219;28;20515;-75
2021/07/14 04:18:41;;;;;;;73.03;44.33;;;;;;;;;;5091638;28;20468;-75
2021/07/14 04:21:08;;;;;;;86.43;52.03;;;;;;;;;;5082139;28;20438;-75
2021/07/14 04:23:35;;;;;;;82.87;50.97;;;;;;;;;;5073197;28;20527;-76
2021/07/14 04:26:02;;;;;;;81.43;50.20;;;;;;;;;;5073263;28;20438;-76
2021/07/14 04:28:32;;;;;;;92.60;52.17;;;;;;;;;;5073486;28;20441;-75
2021/07/14 04:30:59;;;;;;;83.37;50.17;;;;;;;;;;5072789;28;20448;-75
2021/07/14 04:33:26;;;;;;;79.60;50.17;;;;;;;;;;5073019;28;20481;-75
2021/07/14 04:35:55;;;;;;;75.30;44.10;;;;;;;;;;5073335;28;20923;-76
2021/07/14 04:38:22;;;;;;;86.67;48.20;;;;;;;;;;5073227;28;20561;-75
2021/07/14 04:40:49;;;;;;;90.43;52.70;;;;;;;;;;5072770;28;20515;-75
2021/07/14 04:43:17;;;;;;;96.13;54.63;;;;;;;;;;5073315;28;20447;-75
2021/07/14 04:45:44;;;;;;;103.10;54.47;;;;;;;;;;5073089;28;20472;-76
2021/07/14 04:48:11;;;;;;;91.37;47.50;;;;;;;;;;5073660;28;20487;-77
2021/07/14 04:50:38;;;;;;;91.53;52.97;;;;;;;;;;5072969;28;20488;-75
2021/07/14 04:53:07;;;;;;;85.30;50.53;;;;;;;;;;5072731;28;20955;-76
2021/07/14 04:55:34;;;;;;;103.23;51.07;;;;;;;;;;5072598;28;20574;-75
2021/07/14 04:58:01;;;;;;;85.60;54.03;;;;;;;;;;5072649;28;20966;-75
2021/07/14 05:00:28;;;;;;;92.47;53.40;;;;;;;;;;5073932;28;20525;-77
2021/07/14 05:02:56;;;;;;;85.00;48.93;;;;;;;;;;5076573;28;20922;-75
2021/07/14 05:05:23;;;;;;;85.40;48.50;;;;;;;;;;5076423;28;20500;-75
2021/07/14 05:07:50;;;;;;;101.53;55.07;;;;;;;;;;5076392;28;20485;-75
2021/07/14 05:10:20;;;;;;;107.07;53.83;;;;;;;;;;5076218;28;21005;-74
2021/07/14 05:12:48;;;;;;;92.73;51.20;;;;;;;;;;5077104;28;20797;-74
2021/07/14 05:15:15;;;;;;;103.87;52.00;;;;;;;;;;5076219;28;20476;-74
2021/07/14 05:17:43;;;;;;;95.10;50.67;;;;;;;;;;5076911;28;20788;-75
2021/07/14 05:20:10;;;;;;;91.77;49.50;;;;;;;;;;5076037;28;20472;-75
2021/07/14 05:22:38;;;;;;;93.53;50.73;;;;;;;;;;5076036;28;20444;-75
2021/07/14 05:25:05;;;;;;;94.50;48.10;;;;;;;;;;5076629;28;20476;-76
2021/07/14 05:27:34;;;;;;;100.80;50.07;;;;;;;;;;5075952;28;20925;-75
2021/07/14 05:30:01;;;;;;;101.27;54.70;;;;;;;;;;5075931;28;20924;-75
2021/07/14 05:32:28;;;;;;;105.67;49.50;;;;;;;;;;5076152;28;20481;-77
2021/07/14 05:34:56;;;;;;;115.87;54.50;;;;;;;;;;5075600;28;20493;-74
2021/07/14 05:37:23;;;;;;;103.60;54.03;;;;;;;;;;5076862;28;20464;-74
2021/07/14 05:39:50;;;;;;;118.60;54.70;;;;;;;;;;5075742;28;20547;-74
2021/07/14 05:42:17;;;;;;;106.47;50.07;;;;;;;;;;5076210;28;20449;-74
2021/07/14 05:44:46;;;;;;;114.47;53.43;;;;;;;;;;5075607;28;20444;-75
2021/07/14 05:47:13;;;;;;;102.63;52.07;;;;;;;;;;5076072;28;20517;-75
2021/07/14 05:49:41;;;;;;;105.27;48.57;;;;;;;;;;5075755;28;20446;-73
2021/07/14 05:52:08;;;;;;;121.70;53.70;;;;;;;;;;5075422;28;20507;-74
2021/07/14 05:54:36;;;;;;;124.90;56.53;;;;;;;;;;5075403;28;20493;-75
2021/07/14 05:57:03;;;;;;;105.00;54.83;;;;;;;;;;5075373;28;20495;-73
2021/07/14 05:59:30;;;;;;;117.53;54.63;;;;;;;;;;5075797;28;20805;-73
2021/07/14 06:01:59;;;;;;;111.30;52.20;;;;;;;;;;5075541;28;20453;-74
2021/07/14 06:04:26;;;;;;;104.10;52.63;;;;;;;;;;5075145;28;20907;-74
2021/07/14 06:06:56;;;;;;;100.00;52.10;;;;;;;;;;5075770;28;20532;-74
2021/07/14 06:09:23;;;;;;;93.60;48.53;;;;;;;;;;5075255;28;20534;-73
2021/07/14 06:11:50;;;;;;;97.60;47.77;;;;;;;;;;5074555;28;20442;-73
2021/07/14 06:14:17;;;;;;;95.10;50.37;;;;;;;;;;5075452;28;20984;-74
2021/07/14 06:16:44;;;;;;;100.63;51.70;;;;;;;;;;5075352;28;20439;-74
2021/07/14 06:19:13;;;;;;;95.30;49.53;;;;;;;;;;5075201;28;20441;-74
2021/07/14 06:21:40;;;;;;;97.17;47.87;;;;;;;;;;5075864;28;20526;-74
2021/07/14 06:24:08;;;;;;;85.27;46.17;;;;;;;;;;5075310;28;20534;-73
2021/07/14 06:26:35;;;;;;;75.40;43.07;;;;;;;;;;5075422;28;20435;-74
2021/07/14 06:29:02;;;;;;;86.67;50.20;;;;;;;;;;5075850;28;20477;-74
2021/07/14 06:31:30;;;;;;;88.57;47.57;;;;;;;;;;5074978;28;20455;-73
2021/07/14 06:33:57;;;;;;;92.27;47.83;;;;;;;;;;5074239;28;20453;-67
2021/07/14 06:36:26;;;;;;;85.80;48.87;;;;;;;;;;5075168;28;20800;-71
2021/07/14 06:38:53;;;;;;;99.13;48.47;;;;;;;;;;5074914;28;20441;-72
2021/07/14 06:41:22;;;;;;;95.63;47.47;;;;;;;;;;5074985;28;20472;-71
2021/07/14 06:43:50;;;;;;;92.53;50.00;;;;;;;;;;5074308;28;20449;-72
2021/07/14 06:46:19;;;;;;;80.27;45.20;;;;;;;;;;5074727;28;20442;-72
2021/07/14 06:48:46;;;;;;;79.83;43.37;;;;;;;;;;5074871;28;20536;-73
2021/07/14 06:51:13;;;;;;;84.43;48.40;;;;;;;;;;5074290;28;20442;-72
2021/07/14 06:53:42;;;;;;;75.70;45.23;;;;;;;;;;5074304;28;20508;-73
2021/07/14 06:56:09;;;;;;;76.80;44.93;;;;;;;;;;5075169;28;20535;-72
2021/07/14 06:58:39;;;;;;;68.67;38.70;;;;;;;;;;5074157;28;20949;-72
2021/07/14 07:01:06;;;;;;;81.97;44.60;;;;;;;;;;5074114;28;20474;-72
2021/07/14 07:03:34;;;;;;;72.67;37.90;;;;;;;;;;5074905;28;20485;-74
2021/07/14 07:06:01;;;;;;;77.23;44.20;;;;;;;;;;5073916;28;20461;-74
2021/07/14 07:08:28;;;;;;;70.07;43.27;;;;;;;;;;5074281;28;20438;-76
2021/07/14 07:10:57;;;;;;;78.90;44.87;;;;;;;;;;5074865;28;20475;-72
2021/07/14 07:13:24;;;;;;;83.83;44.47;;;;;;;;;;5074430;28;20442;-72
2021/07/14 07:15:53;;;;;;;69.33;40.80;;;;;;;;;;5073718;28;20474;-73
2021/07/14 07:18:21;;;;;;;67.23;43.43;;;;;;;;;;5074250;28;20457;-71
2021/07/14 07:20:48;;;;;;;71.20;38.73;;;;;;;;;;5073904;28;20470;-72
2021/07/14 07:23:15;;;;;;;79.10;43.83;;;;;;;;;;5073456;28;21147;-72
2021/07/14 07:25:43;;;;;;;81.20;42.37;;;;;;;;;;5073825;28;20473;-73
2021/07/14 07:28:15;;;;;;;70.60;43.53;;;;;;;;;;5074213;28;20442;-73
2021/07/14 07:30:42;;;;;;;72.70;42.03;;;;;;;;;;5074493;28;20430;-73
2021/07/14 07:33:09;;;;;;;69.53;43.73;;;;;;;;;;5073512;28;20530;-73
2021/07/14 07:35:37;;;;;;;63.03;36.97;;;;;;;;;;5073722;28;20532;-74
2021/07/14 07:38:05;;;;;;;80.43;43.53;;;;;;;;;;5073855;28;20462;-75
2021/07/14 07:40:32;;;;;;;70.70;42.73;;;;;;;;;;5074686;28;20468;-73
2021/07/14 07:42:59;;;;;;;68.63;42.70;;;;;;;;;;5073588;28;20477;-73
2021/07/14 07:45:28;;;;;;;60.27;35.40;;;;;;;;;;5073318;28;20451;-74
2021/07/14 07:47:55;;;;;;;68.20;41.70;;;;;;;;;;5073350;28;20832;-73
2021/07/14 07:50:23;;;;;;;63.47;39.80;;;;;;;;;;5073501;28;20443;-73
2021/07/14 07:52:50;;;;;;;69.63;39.53;;;;;;;;;;5073730;28;20447;-73
2021/07/14 07:55:17;;;;;;;68.37;41.53;;;;;;;;;;5073647;28;20598;-73
2021/07/14 07:57:45;;;;;;;54.70;36.03;;;;;;;;;;5073643;28;20949;-74
2021/07/14 08:00:13;;;;;;;69.93;40.50;;;;;;;;;;5073260;28;20443;-73
2021/07/14 08:02:42;;;;;;;65.90;41.20;;;;;;;;;;5073768;28;20530;-74
2021/07/14 08:05:10;;;;;;;78.37;42.07;;;;;;;;;;5073781;28;20445;-73
2021/07/14 08:07:37;;;;;;;76.77;42.57;;;;;;;;;;5073452;28;20477;-73
2021/07/14 08:10:05;;;;;;;69.87;41.33;;;;;;;;;;5073271;28;20527;-73
2021/07/14 08:12:32;;;;;;;67.97;40.93;;;;;;;;;;5074145;28;20446;-73
2021/07/14 08:14:59;;;;;;;65.80;39.80;;;;;;;;;;5073014;28;20510;-72
2021/07/14 08:17:27;;;;;;;72.80;42.57;;;;;;;;;;5073850;28;20433;-73
2021/07/14 08:19:55;;;;;;;69.40;43.03;;;;;;;;;;5073259;28;20473;-73
2021/07/14 08:22:23;;;;;;;71.90;42.80;;;;;;;;;;5073536;28;20472;-74
2021/07/14 08:24:50;;;;;;;77.00;44.70;;;;;;;;;;5073354;28;20454;-73
2021/07/14 08:27:17;;;;;;;86.57;43.80;;;;;;;;;;5072908;28;20446;-71
2021/07/14 08:29:45;;;;;;;76.50;43.20;;;;;;;;;;5073309;28;20802;-72
2021/07/14 08:32:12;;;;;;;72.70;42.33;;;;;;;;;;5072790;28;20936;-71
2021/07/14 08:34:39;;;;;;;80.27;46.43;;;;;;;;;;5073199;28;20534;-73
2021/07/14 08:37:08;;;;;;;87.20;44.97;;;;;;;;;;5076802;28;20981;-73
2021/07/14 08:39:35;;;;;;;75.00;43.50;;;;;;;;;;5076953;28;20451;-73
2021/07/14 08:42:03;;;;;;;82.47;47.43;;;;;;;;;;5076768;28;20464;-73
2021/07/14 08:44:31;;;;;;;80.97;44.30;;;;;;;;;;5076535;28;20438;-74
2021/07/14 08:46:59;;;;;;;76.10;42.70;;;;;;;;;;5076174;28;20856;-75
2021/07/14 08:49:26;;;;;;;76.37;42.40;;;;;;;;;;5076434;28;20483;-74
2021/07/14 08:51:54;;;;;;;84.83;46.87;;;;;;;;;;5076282;28;20938;-73
2021/07/14 08:54:23;;;;;;;76.73;43.90;;;;;;;;;;5077462;28;20556;-73
2021/07/14 08:56:50;;;;;;;71.27;42.97;;;;;;;;;;5076407;28;20472;-73
2021/07/14 08:59:19;;;;;;;85.07;48.53;;;;;;;;;;5076742;28;20805;-73
2021/07/14 09:01:47;;;;;;;77.77;46.50;;;;;;;;;;5076342;28;20453;-74
2021/07/14 09:04:14;;;;;;;80.47;43.97;;;;;;;;;;5076761;28;20814;-73
2021/07/14 09:06:42;;;;;;;79.90;47.77;;;;;;;;;;5076408;28;20446;-74
2021/07/14 09:09:09;;;;;;;84.30;46.57;;;;;;;;;;5076531;28;20441;-72
2021/07/14 09:11:51;;;;;;;87.50;49.67;;;;;;;;;;5076676;28;20542;-74
2021/07/14 09:14:32;;;;;;;86.37;48.27;;;;;;;;;;5076458;28;20789;-73
2021/07/14 09:17:00;;;;;;;86.30;48.33;;;;;;;;;;5076062;28;20462;-73
2021/07/14 09:19:28;;;;;;;86.27;48.10;;;;;;;;;;5075552;28;20962;-74
2021/07/14 09:21:56;;;;;;;80.90;44.77;;;;;;;;;;5076457;28;20465;-74
2021/07/14 09:24:25;;;;;;;82.93;48.63;;;;;;;;;;5076277;28;20474;-74
2021/07/14 09:26:54;;;;;;;78.97;48.60;;;;;;;;;;5076223;28;20446;-76
2021/07/14 09:29:21;;;;;;;80.33;46.20;;;;;;;;;;5076249;28;20441;-74
2021/07/14 09:31:49;;;;;;;78.27;47.40;;;;;;;;;;5075778;28;20924;-76
2021/07/14 09:34:23;;;;;;;69.30;46.40;;;;;;;;;;5076138;28;20526;-73
2021/07/14 09:36:50;;;;;;;79.33;46.70;;;;;;;;;;5075286;28;20978;-73
2021/07/14 09:39:29;;;;;;;87.30;49.13;;;;;;;;;;5075734;28;20448;-75
2021/07/14 09:42:02;;;;;;;77.43;47.30;;;;;;;;;;5075335;28;20440;-74
2021/07/14 09:44:29;;;;;;;90.70;50.50;;;;;;;;;;5075752;28;20430;-74
2021/07/14 09:47:10;;;;;;;83.40;48.23;;;;;;;;;;5074610;28;20513;-72
2021/07/14 09:49:37;;;;;;;80.47;48.10;;;;;;;;;;5075159;28;20928;-73
2021/07/14 09:52:09;;;;;;;76.43;47.70;;;;;;;;;;5075714;28;20444;-74
2021/07/14 09:54:36;;;;;;;91.60;49.53;;;;;;;;;;5075847;28;20479;-74
2021/07/14 09:57:12;;;;;;;74.27;45.93;;;;;;;;;;5075236;28;20511;-74
2021/07/14 09:59:40;;;;;;;73.30;47.27;;;;;;;;;;5075230;28;20450;-73
2021/07/14 10:02:08;;;;;;;84.83;51.57;;;;;;;;;;5074942;28;20437;-77
2021/07/14 10:04:36;;;;;;;82.40;48.00;;;;;;;;;;5075331;28;20483;-73
2021/07/14 10:07:11;;;;;;;74.30;48.53;;;;;;;;;;5074876;28;20447;-75
2021/07/14 10:09:39;;;;;;;70.33;47.20;;;;;;;;;;5075069;28;20439;-77
2021/07/14 10:12:24;;;;;;;68.07;44.43;;;;;;;;;;5075352;28;20447;-75
2021/07/14 10:14:53;;;;;;;58.93;43.03;;;;;;;;;;5075285;28;20444;-75
2021/07/14 10:17:35;;;;;;;61.60;44.63;;;;;;;;;;5075227;28;20570;-75
2021/07/14 10:20:02;;;;;;;68.53;45.40;;;;;;;;;;5075656;28;20424;-82
2021/07/14 10:22:36;;;;;;;70.47;48.67;;;;;;;;;;5075190;28;20440;-75
2021/07/14 10:25:03;;;;;;;69.50;44.57;;;;;;;;;;5075446;28;20515;-77
2021/07/14 10:27:31;;;;;;;61.23;45.67;;;;;;;;;;5074942;28;20499;-76
2021/07/14 10:30:00;;;;;;;54.73;41.20;;;;;;;;;;5074664;28;20436;-79
2021/07/14 10:32:28;;;;;;;57.53;41.07;;;;;;;;;;5075121;28;20538;-75
2021/07/14 10:34:56;;;;;;;62.70;44.00;;;;;;;;;;5075489;28;20467;-75
2021/07/14 10:37:23;;;;;;;54.23;42.53;;;;;;;;;;5074725;28;20472;-73
2021/07/14 10:39:51;;;;;;;59.93;42.60;;;;;;;;;;5074790;28;20528;-75
2021/07/14 10:42:18;;;;;;;51.27;37.43;;;;;;;;;;5075097;28;20812;-75
2021/07/14 10:44:46;;;;;;;57.33;42.87;;;;;;;;;;5075028;28;20455;-75
2021/07/14 10:47:15;;;;;;;56.33;41.20;;;;;;;;;;5074507;28;20472;-74
2021/07/14 10:49:43;;;;;;;54.73;41.33;;;;;;;;;;5074243;28;20534;-73
2021/07/14 10:52:11;;;;;;;53.77;42.30;;;;;;;;;;5074346;28;20494;-75
2021/07/14 10:54:38;;;;;;;54.33;43.00;;;;;;;;;;5074508;28;20467;-74
2021/07/14 10:57:06;;;;;;;51.27;41.37;;;;;;;;;;5074054;28;20482;-73
2021/07/14 10:59:33;;;;;;;47.43;39.40;;;;;;;;;;5074260;28;20451;-74
2021/07/14 11:02:01;;;;;;;52.30;40.07;;;;;;;;;;5074291;28;20524;-72
2021/07/14 11:04:48;;;;;;;56.80;42.80;;;;;;;;;;5074159;28;20447;-73
2021/07/14 11:07:17;;;;;;;51.40;41.93;;;;;;;;;;5074572;28;20478;-73
2021/07/14 11:09:46;;;;;;;52.50;41.90;;;;;;;;;;5074133;28;20444;-72
2021/07/14 11:12:14;;;;;;;51.00;39.73;;;;;;;;;;5073816;28;20540;-74
2021/07/14 11:14:42;;;;;;;47.87;39.80;;;;;;;;;;5074117;28;20450;-74
2021/07/14 11:17:10;;;;;;;49.03;38.10;;;;;;;;;;5074357;28;20482;-74
2021/07/14 11:19:45;;;;;;;45.53;36.67;;;;;;;;;;5083782;28;20535;-74
2021/07/14 11:22:14;;;;;;;46.67;38.00;;;;;;;;;;5094501;28;20514;-74
2021/07/14 11:24:56;;;;;;;40.27;35.93;;;;;;;;;;5094288;28;20794;-74
2021/07/14 11:27:54;;;;;;;46.33;36.83;;;;;;;;;;5094252;28;20439;-74
2021/07/14 11:30:23;;;;;;;43.00;36.23;;;;;;;;;;5094676;28;20482;-75
2021/07/14 11:32:54;;;;;;;43.90;38.20;;;;;;;;;;5094340;28;20521;-75
2021/07/14 11:35:22;;;;;;;40.07;35.00;;;;;;;;;;5094560;28;20444;-76
2021/07/14 11:37:56;;;;;;;41.47;37.17;;;;;;;;;;5094147;28;20436;-75
2021/07/14 11:40:38;;;;;;;41.90;35.17;;;;;;;;;;5094218;28;20857;-76
2021/07/14 11:43:15;;;;;;;39.50;35.20;;;;;;;;;;5094230;28;20526;-76
2021/07/14 11:45:46;;;;;;;42.50;35.97;;;;;;;;;;5094446;28;20431;-76
2021/07/14 11:48:15;;;;;;;40.00;35.67;;;;;;;;;;5082409;28;20971;-76
2021/07/14 11:50:54;;;;;;;39.10;34.90;;;;;;;;;;5073850;28;20480;-78
2021/07/14 11:53:31;;;;;;;38.37;34.33;;;;;;;;;;5073094;28;20572;-75
2021/07/14 11:56:01;;;;;;;36.37;31.63;;;;;;;;;;5073975;28;20817;-75
2021/07/14 11:59:02;;;;;;;41.57;35.43;;;;;;;;;;5073481;28;20527;-76
2021/07/14 12:01:48;;;;;;;43.33;35.87;;;;;;;;;;5031428;28;20565;-75
2021/07/14 12:04:15;;;;;;;44.57;39.13;;;;;;;;;;5031143;28;20489;-76
2021/07/14 12:06:43;;;;;;;48.53;39.07;;;;;;;;;;5055456;28;20455;-75
2021/07/14 12:09:30;;;;;;;44.23;39.10;;;;;;;;;;5073638;28;20844;-76
2021/07/14 12:12:00;;;;;;;43.93;38.80;;;;;;;;;;5073043;28;20527;-76
2021/07/14 12:14:29;;;;;;;43.80;39.23;;;;;;;;;;5073627;28;20444;-77
2021/07/14 12:16:57;;;;;;;45.60;39.17;;;;;;;;;;5072874;28;20503;-76
2021/07/14 12:19:25;;;;;;;41.37;36.37;;;;;;;;;;5073114;28;20437;-75
2021/07/14 12:21:53;;;;;;;43.53;38.60;;;;;;;;;;5073614;28;20867;-75
2021/07/14 12:24:30;;;;;;;45.07;37.03;;;;;;;;;;5074045;28;20857;-75
2021/07/14 12:27:10;;;;;;;42.37;37.97;;;;;;;;;;5073337;28;20457;-74
2021/07/14 12:29:37;;;;;;;37.93;33.93;;;;;;;;;;5073571;28;20428;-75
2021/07/14 12:32:05;;;;;;;42.87;38.27;;;;;;;;;;5073280;28;20783;-75
2021/07/14 12:34:33;;;;;;;47.60;38.90;;;;;;;;;;5073116;28;20861;-75
2021/07/14 12:37:00;;;;;;;45.13;40.37;;;;;;;;;;5072842;28;21012;-75
2021/07/14 12:39:28;;;;;;;45.00;39.67;;;;;;;;;;5073378;28;20448;-75
2021/07/14 12:41:57;;;;;;;46.27;41.20;;;;;;;;;;5072898;28;20446;-77
2021/07/14 12:44:26;;;;;;;48.23;41.83;;;;;;;;;;5072829;28;20475;-76
2021/07/14 12:46:53;;;;;;;41.20;35.43;;;;;;;;;;5072998;28;20808;-76
2021/07/14 12:49:22;;;;;;;41.10;36.57;;;;;;;;;;5072864;28;21016;-76
2021/07/14 12:52:03;;;;;;;39.87;35.57;;;;;;;;;;5073248;28;20436;-75
2021/07/14 12:54:30;;;;;;;39.50;35.40;;;;;;;;;;5073515;28;20547;-72
2021/07/14 12:57:03;;;;;;;40.50;36.20;;;;;;;;;;5072516;28;20525;-75
2021/07/14 12:59:31;;;;;;;41.20;36.80;;;;;;;;;;5073297;28;20531;-75
2021/07/14 13:01:59;;;;;;;42.60;36.40;;;;;;;;;;5072921;28;20543;-74
2021/07/14 13:04:26;;;;;;;39.77;35.63;;;;;;;;;;5072770;28;20543;-74
2021/07/14 13:06:53;;;;;;;41.10;36.80;;;;;;;;;;5072575;28;20890;-75
2021/07/14 13:09:21;;;;;;;42.83;38.37;;;;;;;;;;5072636;28;20480;-75
2021/07/14 13:11:48;;;;;;;41.57;37.37;;;;;;;;;;5072777;28;20476;-75
2021/07/14 13:14:15;;;;;;;42.13;37.83;;;;;;;;;;5073058;28;20440;-75
2021/07/14 13:16:44;;;;;;;41.70;37.60;;;;;;;;;;5073071;28;20503;-75
2021/07/14 13:19:18;;;;;;;43.73;39.40;;;;;;;;;;5072405;28;20451;-74
2021/07/14 13:21:46;;;;;;;42.53;38.57;;;;;;;;;;5074168;28;20526;-73
2021/07/14 13:24:14;;;;;;;42.00;37.90;;;;;;;;;;5076353;28;20436;-74
2021/07/14 13:26:41;;;;;;;45.80;41.13;;;;;;;;;;5076323;28;20428;-73
2021/07/14 13:29:09;;;;;;;43.40;38.53;;;;;;;;;;5076489;28;20491;-74
2021/07/14 13:31:38;;;;;;;42.27;37.77;;;;;;;;;;5076149;28;20472;-73
2021/07/14 13:34:09;;;;;;;43.43;39.30;;;;;;;;;;5076144;28;20435;-74
2021/07/14 13:36:37;;;;;;;43.33;38.80;;;;;;;;;;5076668;28;20953;-74
2021/07/14 13:39:16;;;;;;;45.77;40.90;;;;;;;;;;5076311;28;20523;-73
2021/07/14 13:41:44;;;;;;;43.13;38.40;;;;;;;;;;5076376;28;20421;-73
2021/07/14 13:44:11;;;;;;;45.97;41.30;;;;;;;;;;5075716;28;20444;-73
2021/07/14 13:46:44;;;;;;;49.70;44.77;;;;;;;;;;5075693;28;20475;-72
2021/07/14 13:49:21;;;;;;;52.37;44.30;;;;;;;;;;5075897;28;20466;-74
2021/07/14 13:51:53;;;;;;;52.40;45.90;;;;;;;;;;5075923;28;20416;-74
2021/07/14 13:54:22;;;;;;;54.00;47.87;;;;;;;;;;5075972;28;20991;-76
2021/07/14 13:56:50;;;;;;;54.37;47.63;;;;;;;;;;5075955;28;20471;-76
2021/07/14 13:59:20;;;;;;;79.10;51.27;;;;;;;;;;5076216;28;20527;-77
2021/07/14 14:01:55;;;;;;;58.10;49.83;;;;;;;;;;5075566;28;20809;-71
2021/07/14 14:04:23;;;;;;;43.37;38.30;;;;;;;;;;5075368;28;20529;-73
2021/07/14 14:06:50;;;;;;;32.43;28.90;;;;;;;;;;5075742;28;20442;-75
2021/07/14 14:09:18;;;;;;;23.57;19.10;;;;;;;;;;5075932;28;20446;-73
2021/07/14 14:11:45;;;;;;;21.23;18.87;;;;;;;;;;5075521;28;20837;-73
2021/07/14 14:14:12;;;;;;;19.20;17.30;;;;;;;;;;5076472;28;20788;-78
2021/07/14 14:16:40;;;;;;;17.40;14.17;;;;;;;;;;5075995;28;20475;-81
2021/07/14 14:19:08;;;;;;;18.30;15.70;;;;;;;;;;5075676;28;20946;-80
2021/07/14 14:21:36;;;;;;;19.40;14.70;;;;;;;;;;5075777;28;20792;-80
2021/07/14 14:24:07;;;;;;;18.40;16.43;;;;;;;;;;5080693;28;20537;-80
2021/07/14 14:26:34;;;;;;;16.30;14.47;;;;;;;;;;5093317;28;20453;-80
2021/07/14 14:29:01;;;;;;;20.33;17.17;;;;;;;;;;5095411;28;20449;-76
2021/07/14 14:31:29;;;;;;;17.43;15.80;;;;;;;;;;5095955;28;20439;-78